Time;durP1;ratioP1;P1;durP2;ratioP2;P2;SDS_P1;SDS_P2;PMS_P1;PMS_P2;Temp;Humidity;BMP_temperature;BMP_pressure;BME280_temperature;BME280_humidity;BME280_pressure;Samples;Min_cycle;Max_cycle;Signal;HPM_P1;HPM_P2
2021/10/27 04:00:20;;;;;;;55.80;22.07;;;8.10;99.90;;;;;;6208863;22;21440;-69
2021/10/27 04:02:46;;;;;;;392.77;33.57;;;8.10;99.90;;;;;;6252779;23;20406;-70
2021/10/27 04:05:13;;;;;;;238.20;26.00;;;8.10;99.90;;;;;;6252453;23;20718;-70
2021/10/27 04:07:40;;;;;;;196.47;26.07;;;8.10;99.90;;;;;;6255196;23;20410;-70
2021/10/27 04:10:08;;;;;;;79.83;23.83;;;8.10;99.90;;;;;;6249159;23;20895;-70
2021/10/27 04:12:36;;;;;;;169.07;24.00;;;8.10;99.90;;;;;;6217891;23;20766;-70
2021/10/27 04:15:04;;;;;;;121.73;23.33;;;8.00;99.90;;;;;;6218293;23;20412;-71
2021/10/27 04:17:34;;;;;;;154.30;23.43;;;8.00;99.90;;;;;;6228725;23;20435;-71
2021/10/27 04:20:00;;;;;;;125.80;24.00;;;8.00;99.90;;;;;;6218276;23;20412;-70
2021/10/27 04:22:27;;;;;;;67.93;21.57;;;8.00;99.90;;;;;;6218597;23;20443;-70
2021/10/27 04:24:54;;;;;;;49.03;18.97;;;8.00;99.90;;;;;;6217130;23;20418;-69
2021/10/27 04:27:22;;;;;;;217.53;27.13;;;8.00;99.90;;;;;;6217455;23;20408;-70
2021/10/27 04:29:49;;;;;;;297.30;28.37;;;8.00;99.90;;;;;;6217036;23;20411;-70
2021/10/27 04:32:15;;;;;;;365.73;31.63;;;7.80;99.90;;;;;;6217021;23;20431;-70
2021/10/27 04:34:44;;;;;;;371.70;30.40;;;7.60;99.90;;;;;;6217351;23;20418;-70
2021/10/27 04:37:10;;;;;;;439.33;35.60;;;7.50;99.90;;;;;;6217172;23;20420;-71
2021/10/27 04:39:37;;;;;;;465.00;38.50;;;7.40;99.90;;;;;;6216655;23;20411;-70
2021/10/27 04:42:05;;;;;;;478.37;42.23;;;7.30;99.90;;;;;;6218038;23;20436;-70
2021/10/27 04:44:31;;;;;;;650.00;44.80;;;7.20;99.90;;;;;;6217800;23;20416;-69
2021/10/27 04:47:01;;;;;;;530.13;41.27;;;7.10;99.90;;;;;;6217173;23;20415;-71
2021/10/27 04:49:28;;;;;;;550.90;43.70;;;7.10;99.90;;;;;;6217238;23;20395;-69
2021/10/27 04:51:56;;;;;;;164.47;33.40;;;7.20;99.90;;;;;;6217203;23;20466;-69
2021/10/27 04:54:24;;;;;;;516.10;42.10;;;7.30;99.90;;;;;;6217359;23;20470;-70
2021/10/27 04:56:51;;;;;;;310.90;37.40;;;7.30;99.90;;;;;;6217178;23;20442;-71
2021/10/27 04:59:19;;;;;;;452.67;40.20;;;7.30;99.90;;;;;;6219491;23;20412;-68
2021/10/27 05:01:46;;;;;;;272.33;31.87;;;7.30;99.90;;;;;;6229383;23;20444;-68
2021/10/27 05:04:13;;;;;;;180.00;25.13;;;7.50;99.90;;;;;;6218994;23;20419;-69
2021/10/27 05:06:40;;;;;;;381.47;32.80;;;7.70;99.90;;;;;;6217818;23;20415;-69
2021/10/27 05:09:08;;;;;;;335.67;29.70;;;8.00;99.90;;;;;;6219065;23;20782;-70
2021/10/27 05:11:35;;;;;;;411.13;34.20;;;8.30;99.90;;;;;;6218529;23;20432;-69
2021/10/27 05:14:02;;;;;;;402.30;33.20;;;8.40;99.90;;;;;;6222894;23;20415;-69
2021/10/27 05:16:29;;;;;;;584.60;39.90;;;8.50;99.90;;;;;;6224667;23;20415;-68
2021/10/27 05:18:55;;;;;;;516.13;39.00;;;8.40;99.90;;;;;;6218671;23;20412;-72
2021/10/27 05:21:22;;;;;;;193.07;30.70;;;8.30;99.90;;;;;;6218379;23;20467;-73
2021/10/27 05:23:49;;;;;;;433.97;36.00;;;8.20;99.90;;;;;;6218075;23;20407;-72
2021/10/27 05:26:17;;;;;;;454.27;41.00;;;8.00;99.90;;;;;;6218581;23;20412;-71
2021/10/27 05:28:44;;;;;;;436.47;38.37;;;7.80;99.90;;;;;;6218188;23;20407;-72
2021/10/27 05:31:11;;;;;;;558.93;41.30;;;7.60;99.90;;;;;;6217832;23;20431;-71
2021/10/27 05:33:37;;;;;;;356.57;33.07;;;7.30;99.90;;;;;;6217906;23;20716;-73
2021/10/27 05:36:05;;;;;;;195.30;32.50;;;7.20;99.90;;;;;;6217639;23;20414;-73
2021/10/27 05:38:32;;;;;;;79.97;26.13;;;7.20;99.90;;;;;;6219811;23;20435;-72
2021/10/27 05:40:58;;;;;;;79.17;27.20;;;7.30;99.90;;;;;;6218291;23;20486;-71
2021/10/27 05:43:26;;;;;;;308.63;31.03;;;7.30;99.90;;;;;;6216406;23;20415;-71
2021/10/27 05:45:56;;;;;;;52.43;23.43;;;7.30;99.90;;;;;;6216282;23;20416;-70
2021/10/27 05:48:26;;;;;;;289.30;31.73;;;7.40;99.90;;;;;;6216614;23;20458;-70
2021/10/27 05:51:09;;;;;;;160.63;30.97;;;7.50;99.90;;;;;;6216390;23;20765;-71
2021/10/27 05:56:20;;;;;;;433.23;37.77;;;7.40;99.90;;;;;;6216697;23;20411;-70
2021/10/27 05:58:49;;;;;;;138.27;29.97;;;7.20;99.90;;;;;;6216335;23;20522;-70
2021/10/27 06:01:16;;;;;;;35.17;26.20;;;7.30;99.90;;;;;;6216496;23;20446;-71
2021/10/27 06:03:43;;;;;;;263.77;37.50;;;7.30;99.90;;;;;;6216462;23;20412;-70
2021/10/27 06:06:11;;;;;;;133.53;30.03;;;7.30;99.90;;;;;;6216319;23;20412;-70
2021/10/27 06:08:38;;;;;;;58.90;27.13;;;7.30;99.90;;;;;;6216253;23;20971;-70
2021/10/27 06:11:09;;;;;;;90.30;33.93;;;7.30;99.90;;;;;;6216630;23;20435;-70
2021/10/27 06:13:37;;;;;;;101.00;34.30;;;7.20;99.90;;;;;;6216844;23;20392;-70
2021/10/27 06:16:06;;;;;;;57.17;28.50;;;7.20;99.90;;;;;;6215977;23;20744;-71
2021/10/27 06:18:33;;;;;;;47.63;30.40;;;7.20;99.90;;;;;;6216269;23;20423;-70
2021/10/27 06:20:59;;;;;;;115.97;32.60;;;7.30;99.90;;;;;;6217456;23;20435;-70
2021/10/27 06:23:26;;;;;;;126.47;33.60;;;7.40;99.90;;;;;;6218855;23;20412;-70
2021/10/27 06:25:53;;;;;;;131.70;32.57;;;7.30;99.90;;;;;;6218503;23;20757;-70
2021/10/27 06:28:23;;;;;;;53.57;30.47;;;7.20;99.90;;;;;;6218447;23;20469;-70
2021/10/27 06:30:53;;;;;;;57.40;30.87;;;7.20;99.90;;;;;;6218147;23;20431;-70
2021/10/27 06:33:31;;;;;;;33.30;24.23;;;7.30;99.90;;;;;;6220371;23;20418;-68
2021/10/27 06:36:02;;;;;;;31.67;24.83;;;7.40;99.90;;;;;;6224875;23;20430;-67
2021/10/27 06:38:49;;;;;;;26.53;22.03;;;7.60;99.90;;;;;;6235805;23;20412;-67
2021/10/27 06:46:45;;;;;;;16.30;14.60;;;8.60;99.90;;;;;;6235742;23;20399;-68
2021/10/27 06:49:13;;;;;;;17.87;16.07;;;8.80;99.90;;;;;;6222553;23;20482;-71
2021/10/27 06:51:40;;;;;;;16.30;14.57;;;8.60;99.90;;;;;;6218490;23;20439;-70
2021/10/27 06:54:08;;;;;;;18.37;15.20;;;8.50;99.90;;;;;;6219222;23;20415;-69
2021/10/27 06:56:36;;;;;;;17.57;15.77;;;8.30;99.90;;;;;;6232298;23;20884;-70
2021/10/27 06:59:08;;;;;;;17.60;15.60;;;8.10;99.90;;;;;;6228507;23;20954;-70
2021/10/27 07:01:54;;;;;;;16.90;15.20;;;8.20;99.90;;;;;;6217371;23;20447;-71
2021/10/27 07:15:31;;;;;;;12.57;11.43;;;9.40;99.90;;;;;;6152570;23;20438;-72
2021/10/27 07:17:58;;;;;;;12.00;10.97;;;9.90;99.90;;;;;;6217749;23;20436;-71
2021/10/27 07:20:28;;;;;;;11.63;10.43;;;10.50;99.90;;;;;;6217321;23;20412;-71
2021/10/27 07:22:59;;;;;;;12.57;11.37;;;11.00;99.90;;;;;;6217571;23;20396;-71
2021/10/27 07:25:27;;;;;;;11.00;9.90;;;11.50;99.90;;;;;;6218111;23;20395;-72
2021/10/27 07:27:54;;;;;;;10.50;9.60;;;12.20;99.90;;;;;;6217785;23;20412;-72
2021/10/27 07:30:21;;;;;;;11.50;10.10;;;12.80;99.90;;;;;;6217732;23;20411;-72
2021/10/27 07:32:53;;;;;;;10.50;9.53;;;13.00;99.90;;;;;;6218525;23;20411;-71
2021/10/27 07:35:26;;;;;;;10.23;9.43;;;13.10;99.90;;;;;;6217627;23;20466;-72
2021/10/27 07:40:43;;;;;;;11.93;10.80;;;13.30;99.90;;;;;;6217820;23;20471;-72
2021/10/27 07:43:14;;;;;;;11.77;10.77;;;13.00;99.90;;;;;;6217259;23;20450;-72
2021/10/27 07:45:41;;;;;;;12.90;11.70;;;12.60;99.90;;;;;;6217659;23;20466;-72
2021/10/27 07:48:09;;;;;;;12.30;11.20;;;12.60;99.90;;;;;;6217591;23;20412;-72
2021/10/27 07:50:37;;;;;;;12.03;10.83;;;12.60;99.90;;;;;;6217465;23;20450;-72
2021/10/27 07:53:08;;;;;;;11.03;9.93;;;12.30;99.90;;;;;;6217557;23;20412;-71
2021/10/27 07:55:35;;;;;;;11.67;10.53;;;12.50;99.90;;;;;;6217349;23;20396;-71
2021/10/27 07:58:02;;;;;;;10.93;10.00;;;12.90;99.90;;;;;;6217173;23;20490;-72
2021/10/27 08:00:30;;;;;;;10.77;9.87;;;13.80;99.90;;;;;;6217079;23;20419;-71
2021/10/27 08:03:00;;;;;;;9.23;8.40;;;14.70;99.90;;;;;;6217460;23;20396;-72
2021/10/27 08:05:29;;;;;;;11.10;10.20;;;15.50;99.90;;;;;;6217445;23;20419;-72
2021/10/27 08:07:58;;;;;;;10.13;9.20;;;15.80;99.90;;;;;;6217207;23;20403;-71
2021/10/27 08:10:29;;;;;;;11.03;8.50;;;16.20;99.90;;;;;;6217026;23;20466;-71
2021/10/27 08:12:55;;;;;;;10.57;9.50;;;17.20;99.90;;;;;;6217447;23;20478;-72
2021/10/27 08:15:22;;;;;;;9.20;8.40;;;17.80;99.90;;;;;;6217077;23;20418;-72
2021/10/27 08:17:50;;;;;;;10.03;9.20;;;18.30;99.90;;;;;;6217188;23;20431;-71
2021/10/27 08:20:19;;;;;;;8.47;7.87;;;18.50;99.90;;;;;;6217301;23;20435;-71
2021/10/27 08:22:53;;;;;;;9.20;8.50;;;18.80;99.90;;;;;;6217902;23;20446;-72
2021/10/27 08:25:27;;;;;;;8.80;8.17;;;18.70;99.90;;;;;;6217466;23;20773;-73
2021/10/27 08:27:56;;;;;;;9.43;8.53;;;19.40;99.90;;;;;;6217847;23;20709;-72
2021/10/27 08:30:33;;;;;;;10.43;9.53;;;19.20;99.90;;;;;;6217240;23;20418;-71
2021/10/27 08:33:01;;;;;;;9.10;8.27;;;19.10;99.90;;;;;;6218167;23;20447;-72
2021/10/27 08:35:30;;;;;;;9.27;8.53;;;19.80;99.90;;;;;;6217142;23;20412;-71
2021/10/27 08:37:57;;;;;;;9.20;8.40;;;19.80;99.90;;;;;;6217532;23;20432;-72
2021/10/27 08:40:24;;;;;;;12.70;9.10;;;20.00;99.50;;;;;;6216935;23;20416;-72
2021/10/27 08:42:51;;;;;;;8.87;8.13;;;20.40;98.20;;;;;;6220204;23;20522;-71
2021/10/27 08:45:19;;;;;;;9.07;8.37;;;20.90;97.50;;;;;;6219501;23;20412;-72
2021/10/27 08:47:49;;;;;;;9.53;8.63;;;20.90;96.90;;;;;;6216858;23;20415;-71
2021/10/27 08:50:16;;;;;;;9.03;8.33;;;20.70;97.60;;;;;;6216810;23;20466;-72
2021/10/27 08:52:43;;;;;;;9.17;8.37;;;21.40;96.40;;;;;;6220178;23;20407;-71
2021/10/27 08:55:13;;;;;;;9.67;8.90;;;22.20;95.30;;;;;;6229155;23;20419;-72
2021/10/27 08:57:40;;;;;;;10.47;8.37;;;22.70;94.50;;;;;;6216828;23;20419;-72
2021/10/27 09:00:13;;;;;;;9.80;9.10;;;22.80;92.60;;;;;;6216747;23;20412;-72
2021/10/27 09:16:40;;;;;;;9.83;9.03;;;23.30;90.20;;;;;;6216753;23;20379;-72
2021/10/27 09:33:55;;;;;;;11.10;8.83;;;23.20;88.50;;;;;;6216985;23;20700;-72
2021/10/27 09:36:32;;;;;;;9.30;8.60;;;23.10;87.60;;;;;;6216509;23;20408;-72
2021/10/27 09:39:20;;;;;;;9.67;8.83;;;23.00;88.80;;;;;;6216422;23;20446;-72
2021/10/27 09:42:13;;;;;;;9.60;8.63;;;22.60;87.40;;;;;;6216441;23;20486;-72
2021/10/27 09:45:05;;;;;;;9.13;8.40;;;22.50;89.90;;;;;;6216392;23;20412;-72
2021/10/27 09:56:10;;;;;;;10.60;9.70;;;22.90;88.60;;;;;;6216014;23;20379;-72
2021/10/27 10:04:14;;;;;;;8.90;8.00;;;23.70;87.70;;;;;;6216561;23;20379;-71
2021/10/27 10:06:43;;;;;;;9.17;8.37;;;23.50;85.00;;;;;;6216554;23;20396;-71
2021/10/27 10:09:13;;;;;;;9.17;8.30;;;23.80;84.80;;;;;;6216618;23;21031;-71
2021/10/27 10:11:40;;;;;;;8.87;8.07;;;23.60;86.50;;;;;;6216905;23;20431;-71
2021/10/27 10:14:09;;;;;;;10.23;9.33;;;24.10;85.30;;;;;;6216673;23;20426;-71
2021/10/27 10:16:40;;;;;;;9.93;8.20;;;24.20;85.40;;;;;;6216206;23;20411;-71
2021/10/27 10:19:10;;;;;;;10.10;7.30;;;24.70;83.20;;;;;;6216085;23;20423;-71
2021/10/27 10:21:41;;;;;;;9.23;8.37;;;25.10;81.60;;;;;;6216099;23;20438;-71
2021/10/27 10:24:32;;;;;;;9.80;8.00;;;25.30;80.00;;;;;;6216308;23;20412;-71
2021/10/27 10:27:01;;;;;;;8.23;7.53;;;25.50;78.70;;;;;;6209607;23;20412;-71
2021/10/27 10:29:48;;;;;;;9.40;8.60;;;25.40;77.70;;;;;;6216673;23;20403;-71
2021/10/27 10:32:35;;;;;;;8.30;7.50;;;25.20;80.20;;;;;;6216488;23;20427;-71
2021/10/27 10:35:11;;;;;;;8.67;7.87;;;25.40;78.00;;;;;;6216185;23;20411;-71
2021/10/27 10:37:43;;;;;;;7.63;7.03;;;25.50;77.30;;;;;;6216206;23;20857;-71
2021/10/27 10:58:16;;;;;;;6.83;6.33;;;21.60;88.70;;;;;;6226301;23;20760;-71
2021/10/27 11:24:02;;;;;;;3.70;3.40;;;19.70;93.30;;;;;;6217729;23;20376;-71
2021/10/27 11:37:51;;;;;;;6.73;4.90;;;19.20;95.70;;;;;;6217322;23;20434;-71
2021/10/27 11:40:32;;;;;;;5.73;5.10;;;19.40;94.30;;;;;;6217244;23;20427;-71
2021/10/27 11:43:02;;;;;;;5.67;5.17;;;19.40;94.10;;;;;;6217419;23;20525;-71
2021/10/27 11:45:42;;;;;;;6.50;5.90;;;19.10;95.00;;;;;;6217059;23;20411;-71
2021/10/27 11:48:18;;;;;;;6.13;5.63;;;19.30;94.30;;;;;;6217429;23;20402;-71
2021/10/27 11:50:46;;;;;;;6.50;5.90;;;19.20;96.70;;;;;;6217403;23;20431;-71
2021/10/27 11:53:24;;;;;;;11.30;6.47;;;18.90;96.00;;;;;;6216955;23;20889;-71
2021/10/27 11:55:53;;;;;;;6.77;6.13;;;19.10;97.50;;;;;;6217458;23;20396;-71
2021/10/27 11:58:22;;;;;;;6.50;6.00;;;19.30;96.90;;;;;;6217259;23;20436;-71
2021/10/27 12:00:58;;;;;;;6.20;5.50;;;19.50;95.80;;;;;;6216738;23;20991;-71
2021/10/27 12:03:38;;;;;;;5.80;5.40;;;19.70;95.70;;;;;;6217643;23;20395;-71
2021/10/27 12:06:09;;;;;;;5.53;4.93;;;19.40;95.60;;;;;;6216922;23;20400;-71
2021/10/27 12:09:02;;;;;;;7.17;6.57;;;19.20;96.40;;;;;;6217573;23;20392;-71
2021/10/27 12:11:38;;;;;;;5.90;5.40;;;19.10;96.70;;;;;;6217542;23;20440;-72
2021/10/27 12:14:20;;;;;;;5.57;5.10;;;19.10;97.30;;;;;;6217153;23;20400;-71
2021/10/27 12:17:12;;;;;;;6.50;6.00;;;19.40;97.60;;;;;;6217424;23;20396;-71
2021/10/27 12:19:41;;;;;;;4.07;3.87;;;19.60;95.80;;;;;;6216833;23;20507;-71
2021/10/27 12:22:09;;;;;;;5.60;5.17;;;19.80;99.00;;;;;;6218086;23;20788;-71
2021/10/27 12:24:38;;;;;;;5.13;4.77;;;19.90;96.90;;;;;;6217233;23;20412;-71
2021/10/27 12:27:19;;;;;;;7.30;5.30;;;19.90;97.00;;;;;;6217225;23;20466;-72
2021/10/27 12:29:53;;;;;;;5.70;5.20;;;19.90;97.80;;;;;;6217206;23;20396;-72
2021/10/27 12:32:19;;;;;;;4.63;4.23;;;19.90;94.20;;;;;;6223965;23;20526;-72
2021/10/27 12:34:49;;;;;;;4.77;4.47;;;20.00;94.80;;;;;;6227564;23;20416;-72
2021/10/27 12:37:26;;;;;;;4.80;4.37;;;20.20;98.60;;;;;;6217192;23;20419;-71
2021/10/27 12:39:54;;;;;;;6.10;4.50;;;19.80;97.30;;;;;;6216582;23;20920;-71
2021/10/27 12:42:21;;;;;;;5.17;4.20;;;19.90;95.80;;;;;;6216910;23;20431;-71
2021/10/27 12:44:50;;;;;;;4.77;4.33;;;19.70;95.90;;;;;;6217112;23;20427;-72
2021/10/27 12:47:21;;;;;;;8.27;4.30;;;19.90;96.40;;;;;;6217210;23;20416;-72
2021/10/27 12:50:03;;;;;;;5.13;4.17;;;19.60;96.90;;;;;;6218192;23;20486;-72
2021/10/27 12:52:33;;;;;;;4.43;4.03;;;19.70;97.30;;;;;;6216958;23;20484;-71
2021/10/27 12:55:26;;;;;;;4.97;4.37;;;19.80;97.20;;;;;;6217341;23;20412;-72
2021/10/27 12:58:03;;;;;;;4.40;4.00;;;19.90;95.70;;;;;;6211971;23;20408;-72
2021/10/27 13:00:44;;;;;;;4.23;3.83;;;20.00;95.10;;;;;;6216901;23;20435;-72
2021/10/27 13:03:36;;;;;;;4.70;3.60;;;20.10;95.50;;;;;;6216989;23;20771;-72
2021/10/27 13:06:13;;;;;;;3.97;3.57;;;20.20;94.90;;;;;;6216649;23;20396;-72
2021/10/27 13:11:37;;;;;;;3.60;3.00;;;20.40;96.00;;;;;;6226745;23;20477;-72
2021/10/27 13:22:41;;;;;;;2.47;2.33;;;20.20;92.30;;;;;;6124821;23;20509;-72
2021/10/27 13:30:47;;;;;;;2.80;2.60;;;20.10;93.80;;;;;;6216704;23;20739;-72
2021/10/27 13:33:15;;;;;;;4.23;3.00;;;20.00;93.40;;;;;;6216461;23;20402;-72
2021/10/27 13:35:42;;;;;;;3.67;3.30;;;19.90;94.00;;;;;;6216497;23;20411;-72
2021/10/27 13:38:11;;;;;;;2.83;2.63;;;19.30;93.30;;;;;;6216736;23;20418;-72
2021/10/27 13:40:42;;;;;;;3.27;2.97;;;19.50;94.00;;;;;;6216395;23;20467;-72
2021/10/27 13:43:11;;;;;;;3.97;3.07;;;19.60;93.70;;;;;;6216761;23;20438;-72
2021/10/27 13:45:45;;;;;;;5.13;2.57;;;19.50;93.60;;;;;;6216570;23;20411;-72
2021/10/27 13:48:13;;;;;;;2.57;2.03;;;19.50;94.40;;;;;;6216738;23;20396;-72
2021/10/27 14:07:24;;;;;;;2.30;2.10;;;19.50;97.10;;;;;;6216284;23;20376;-72
2021/10/27 14:09:55;;;;;;;3.17;2.40;;;19.60;95.00;;;;;;6215873;23;20400;-71
2021/10/27 14:12:37;;;;;;;2.50;2.00;;;19.60;94.50;;;;;;6216253;23;20428;-71
2021/10/27 14:15:16;;;;;;;2.60;2.40;;;19.40;93.90;;;;;;6216489;23;20475;-70
2021/10/27 14:48:20;;;;;;;2.10;2.00;;;18.70;95.40;;;;;;6217623;23;20426;-72
2021/10/27 15:20:54;;;;;;;2.60;1.80;;;17.50;99.10;;;;;;6168142;23;20439;-74
2021/10/27 15:23:29;;;;;;;5.23;2.20;;;17.40;99.60;;;;;;6217999;23;20418;-74
2021/10/27 15:28:48;;;;;;;2.30;2.10;;;17.20;99.70;;;;;;6217892;23;20379;-75
2021/10/27 15:31:27;;;;;;;1.90;1.80;;;17.10;99.90;;;;;;6218045;23;20446;-74
2021/10/27 15:34:07;;;;;;;2.10;1.90;;;17.00;99.90;;;;;;6222882;23;20424;-74
2021/10/27 15:42:18;;;;;;;2.03;1.90;;;16.80;99.90;;;;;;6217950;23;20798;-74
2021/10/27 15:44:58;;;;;;;2.10;1.90;;;16.80;99.90;;;;;;6218386;23;20720;-75
2021/10/27 15:52:54;;;;;;;2.73;2.50;;;16.50;99.90;;;;;;6217855;23;20882;-74
2021/10/27 15:55:21;;;;;;;2.50;1.93;;;16.40;99.90;;;;;;6218270;23;20444;-74
2021/10/27 15:57:47;;;;;;;3.20;2.50;;;16.30;99.90;;;;;;6218410;23;20732;-75
2021/10/27 16:00:15;;;;;;;3.10;2.30;;;16.30;99.90;;;;;;6218517;23;20439;-75
2021/10/27 16:02:43;;;;;;;2.97;2.77;;;16.20;99.90;;;;;;6218966;23;20412;-74
2021/10/27 16:05:10;;;;;;;5.20;2.60;;;16.10;99.90;;;;;;6218037;23;20423;-74
2021/10/27 16:07:37;;;;;;;2.87;2.67;;;16.00;99.90;;;;;;6217920;23;20494;-75
2021/10/27 16:10:13;;;;;;;2.53;2.30;;;15.90;99.90;;;;;;6217954;23;20412;-75
2021/10/27 16:12:40;;;;;;;3.70;2.70;;;15.70;99.90;;;;;;6218169;23;20514;-74
2021/10/27 16:15:12;;;;;;;4.80;3.40;;;15.60;99.90;;;;;;6217739;23;20418;-73
2021/10/27 16:17:40;;;;;;;3.63;2.67;;;15.50;99.90;;;;;;6217816;23;20397;-74
2021/10/27 16:20:10;;;;;;;3.03;2.83;;;15.40;99.90;;;;;;6217652;23;20442;-74
2021/10/27 16:22:37;;;;;;;5.00;2.50;;;15.20;99.90;;;;;;6217707;23;20432;-71
2021/10/27 16:25:07;;;;;;;3.37;2.80;;;15.10;99.90;;;;;;6217435;23;20522;-71
2021/10/27 16:27:34;;;;;;;2.47;2.37;;;15.00;99.90;;;;;;6218698;23;20682;-71
2021/10/27 16:30:01;;;;;;;4.67;3.00;;;14.90;99.90;;;;;;6217205;23;20412;-71
2021/10/27 16:32:28;;;;;;;2.93;2.83;;;14.80;99.90;;;;;;6217056;23;20431;-71
2021/10/27 16:34:54;;;;;;;3.70;3.00;;;14.70;99.90;;;;;;6217265;23;20418;-71
2021/10/27 16:37:23;;;;;;;3.77;3.47;;;14.60;99.90;;;;;;6216862;23;20897;-70
2021/10/27 16:39:50;;;;;;;7.33;4.80;;;14.40;99.90;;;;;;6217458;23;20446;-70
2021/10/27 16:42:17;;;;;;;8.27;5.40;;;14.40;99.90;;;;;;6229847;23;20576;-71
2021/10/27 16:44:45;;;;;;;7.90;6.40;;;14.20;99.90;;;;;;6228075;23;20446;-70
2021/10/27 16:47:12;;;;;;;7.13;5.87;;;14.20;99.90;;;;;;6217240;23;20418;-70
2021/10/27 16:49:38;;;;;;;7.20;6.43;;;14.10;99.90;;;;;;6217756;23;20407;-70
2021/10/27 16:52:06;;;;;;;7.10;5.50;;;14.00;99.90;;;;;;6216873;23;20454;-70
2021/10/27 16:54:34;;;;;;;7.13;5.80;;;14.00;99.90;;;;;;6216963;23;20423;-69
2021/10/27 16:57:00;;;;;;;6.73;6.00;;;13.90;99.90;;;;;;6216881;23;20412;-69
2021/10/27 16:59:28;;;;;;;6.43;5.73;;;13.90;99.90;;;;;;6216758;23;20411;-70
2021/10/27 17:01:54;;;;;;;6.00;5.40;;;13.90;99.90;;;;;;6216288;23;20439;-70
2021/10/27 17:04:21;;;;;;;6.40;5.47;;;13.80;99.90;;;;;;6216892;23;20434;-72
2021/10/27 17:06:48;;;;;;;7.27;6.07;;;13.80;99.90;;;;;;6217066;23;20411;-72
2021/10/27 17:09:16;;;;;;;6.33;5.73;;;13.70;99.90;;;;;;6216819;23;20771;-71
2021/10/27 17:11:44;;;;;;;6.03;5.63;;;13.70;99.90;;;;;;6217296;23;20499;-72
2021/10/27 17:14:11;;;;;;;7.77;5.30;;;13.70;99.90;;;;;;6216615;23;20869;-70
2021/10/27 17:16:37;;;;;;;6.87;6.17;;;13.70;99.90;;;;;;6216944;23;20511;-70
2021/10/27 17:19:04;;;;;;;7.33;5.93;;;13.60;99.90;;;;;;6217365;23;20741;-69
2021/10/27 17:21:32;;;;;;;6.97;5.67;;;13.60;99.90;;;;;;6217264;23;20439;-69
2021/10/27 17:24:00;;;;;;;6.17;5.57;;;13.50;99.90;;;;;;6217704;23;20498;-71
2021/10/27 17:26:27;;;;;;;9.13;5.57;;;13.50;99.90;;;;;;6227486;23;20404;-72
2021/10/27 17:28:55;;;;;;;7.03;6.33;;;13.40;99.90;;;;;;6216526;23;20892;-72
2021/10/27 17:31:22;;;;;;;7.23;6.63;;;13.40;99.90;;;;;;6217407;23;20428;-71
2021/10/27 17:33:49;;;;;;;8.73;7.37;;;13.40;99.90;;;;;;6218180;23;20417;-72
2021/10/27 17:36:17;;;;;;;7.13;6.43;;;13.30;99.90;;;;;;6218128;23;20439;-70
2021/10/27 17:38:44;;;;;;;6.90;6.30;;;13.30;99.90;;;;;;6218242;23;20416;-73
2021/10/27 17:41:12;;;;;;;7.63;6.87;;;13.20;99.90;;;;;;6217922;23;21035;-71
2021/10/27 17:43:38;;;;;;;8.60;7.90;;;13.20;99.90;;;;;;6217965;23;20411;-72
2021/10/27 17:46:08;;;;;;;8.47;7.20;;;13.20;99.90;;;;;;6219302;23;20498;-71
2021/10/27 17:48:38;;;;;;;8.70;7.60;;;13.20;99.90;;;;;;6219154;23;20422;-72
2021/10/27 17:51:13;;;;;;;7.87;7.20;;;13.20;99.90;;;;;;6219485;23;20760;-72
2021/10/27 17:59:05;;;;;;;9.00;8.10;;;13.10;99.90;;;;;;6218492;23;20427;-70
2021/10/27 18:01:33;;;;;;;7.83;7.13;;;13.10;99.90;;;;;;6216238;23;20506;-70
2021/10/27 18:04:03;;;;;;;9.53;8.63;;;13.00;99.90;;;;;;6217044;23;20412;-70
2021/10/27 18:06:30;;;;;;;9.50;8.43;;;13.00;99.90;;;;;;6217020;23;20407;-69
2021/10/27 18:08:57;;;;;;;12.30;9.30;;;12.90;99.90;;;;;;6216893;23;20411;-70
2021/10/27 18:11:25;;;;;;;8.20;7.47;;;12.80;99.90;;;;;;6216953;23;20433;-70
2021/10/27 18:13:55;;;;;;;7.77;6.70;;;12.70;99.90;;;;;;6216653;23;20418;-70
2021/10/27 18:16:28;;;;;;;8.77;7.83;;;12.70;99.90;;;;;;6216960;23;20502;-72
2021/10/27 18:21:56;;;;;;;7.30;6.60;;;12.60;99.90;;;;;;6136196;23;20584;-72
2021/10/27 18:24:35;;;;;;;11.50;8.00;;;12.50;99.90;;;;;;6199165;23;20502;-73
2021/10/27 18:27:19;;;;;;;8.10;7.43;;;12.50;99.90;;;;;;6218859;23;20856;-72
2021/10/27 18:38:01;;;;;;;7.80;6.40;;;12.50;99.90;;;;;;6228859;23;20390;-71
2021/10/27 18:40:33;;;;;;;6.73;6.20;;;12.60;99.90;;;;;;6218305;23;20427;-69
2021/10/27 18:43:08;;;;;;;8.33;7.20;;;12.70;99.90;;;;;;6218031;23;20900;-70
2021/10/27 18:45:36;;;;;;;7.90;7.20;;;12.70;99.90;;;;;;6218434;23;20775;-70
2021/10/27 18:48:04;;;;;;;7.03;6.43;;;12.70;99.90;;;;;;6218035;23;20987;-70
2021/10/27 18:50:40;;;;;;;7.50;6.90;;;12.80;99.90;;;;;;6218218;23;20412;-70
2021/10/27 18:53:18;;;;;;;7.93;7.07;;;12.80;99.90;;;;;;6228870;23;20469;-70
2021/10/27 18:55:59;;;;;;;9.93;7.87;;;12.80;99.90;;;;;;6218559;23;20400;-70
2021/10/27 18:58:29;;;;;;;8.60;7.73;;;12.80;99.90;;;;;;6219494;23;20396;-69
2021/10/27 19:01:05;;;;;;;8.90;8.00;;;12.80;99.90;;;;;;6218001;23;20509;-71
2021/10/27 19:03:43;;;;;;;7.37;6.83;;;12.80;99.90;;;;;;6218732;23;20395;-69
2021/10/27 19:11:44;;;;;;;8.90;8.10;;;12.70;99.90;;;;;;6218343;23;20796;-70
2021/10/27 19:14:24;;;;;;;8.83;8.03;;;12.70;99.90;;;;;;6218298;23;20458;-69
2021/10/27 19:16:52;;;;;;;8.47;7.67;;;12.60;99.90;;;;;;6218391;23;20396;-69
2021/10/27 19:19:19;;;;;;;8.90;8.10;;;12.60;99.90;;;;;;6218668;23;20412;-69
2021/10/27 19:21:47;;;;;;;9.73;8.83;;;12.60;99.90;;;;;;6218804;23;20446;-69
2021/10/27 19:24:21;;;;;;;14.57;8.87;;;12.50;99.90;;;;;;6232006;23;20450;-69
2021/10/27 19:26:54;;;;;;;11.53;8.80;;;12.50;99.90;;;;;;6227202;23;20396;-69
2021/10/27 19:29:24;;;;;;;9.40;8.07;;;12.40;99.90;;;;;;6218603;23;20519;-70
2021/10/27 19:32:21;;;;;;;10.77;9.37;;;12.40;99.90;;;;;;6217478;23;20459;-69
2021/10/27 20:07:45;;;;;;;10.03;8.60;;;11.90;99.90;;;;;;6217016;23;20400;-69
2021/10/27 20:10:28;;;;;;;10.43;9.27;;;11.80;99.90;;;;;;6217431;23;20471;-69
2021/10/27 20:52:10;;;;;;;14.07;11.87;;;11.20;99.90;;;;;;5092199;27;21053;-70
2021/10/27 20:54:38;;;;;;;13.10;11.80;;;11.10;99.90;;;;;;5091845;28;20437;-69
2021/10/27 20:57:13;;;;;;;15.77;12.67;;;11.10;99.90;;;;;;5092097;28;20461;-70
2021/10/27 20:59:44;;;;;;;14.27;12.87;;;11.10;99.90;;;;;;5092787;28;20451;-70
2021/10/27 21:02:43;;;;;;;13.27;11.87;;;11.10;99.90;;;;;;5091825;28;20461;-70
2021/10/27 21:13:25;;;;;;;13.10;11.80;;;11.00;99.90;;;;;;5091737;28;20417;-70
2021/10/27 21:15:51;;;;;;;14.43;12.97;;;11.00;99.90;;;;;;5091497;28;20851;-69
2021/10/27 21:18:18;;;;;;;15.63;13.93;;;11.00;99.90;;;;;;5091715;28;20453;-69
2021/10/27 21:20:45;;;;;;;15.87;14.10;;;10.90;99.90;;;;;;5091685;28;20473;-69
2021/10/27 21:23:13;;;;;;;15.13;12.77;;;10.90;99.90;;;;;;5091568;28;20473;-69
2021/10/27 21:25:40;;;;;;;14.53;12.90;;;10.90;99.90;;;;;;5091416;28;20445;-69
2021/10/27 21:28:19;;;;;;;14.63;13.23;;;10.90;99.90;;;;;;5092506;28;20445;-69
2021/10/27 21:31:06;;;;;;;13.23;11.87;;;10.90;99.90;;;;;;5093162;28;20979;-69
2021/10/27 21:33:48;;;;;;;12.83;11.53;;;10.80;99.90;;;;;;5093646;28;20528;-69
2021/10/27 21:44:29;;;;;;;15.93;13.17;;;10.50;99.90;;;;;;5091991;28;20416;-70
2021/10/27 21:46:56;;;;;;;14.67;13.20;;;10.40;99.90;;;;;;5091103;28;20460;-69
2021/10/27 21:49:24;;;;;;;16.40;14.43;;;10.40;99.90;;;;;;5091182;28;20484;-69
2021/10/27 21:51:51;;;;;;;16.63;14.93;;;10.30;99.90;;;;;;5090795;28;20481;-69
2021/10/27 21:54:19;;;;;;;15.17;13.60;;;10.30;99.90;;;;;;5091279;28;20461;-69
2021/10/27 21:56:47;;;;;;;14.97;13.37;;;10.20;99.90;;;;;;5092080;28;20524;-69
2021/10/27 21:59:14;;;;;;;17.60;14.83;;;10.20;99.90;;;;;;5091456;28;20533;-69
